Lake Forest, Illinois
Current Conditions -  °F | °C
As of 3:20 PM on Monday 24 Nov 2014 (Local Time) from KPWK Reporting Station
Light Snow Light Snow  
Wind Chill: 16°   Ceiling: 1400
Heat Index: 29°   Visibility: 2.5mi
Dew Point: 24°   Wind: 18mph
Humidity: 82%   Direction: 240°WSW
Pressure: 29.51"   Gusts: 31mph
Location:  42.25°N, 87.84°W
Report Text: KPWK 242120Z 24016G27KT 2 1/2SM -SN OVC014 M02/M04 A2951 RMK AO2 PK WND 25029/2059 SNB16 P0000 T10171044
Loading
Personal Weather Stations






























Interactive Weather Map New forecast layout! Learn more

10-Day Weather Forecast

Advertisements
Track Severe Weather on mobile